Time;durP1;ratioP1;P1;durP2;ratioP2;P2;SDS_P1;SDS_P2;PMS_P1;PMS_P2;Temp;Humidity;BMP_temperature;BMP_pressure;BME280_temperature;BME280_humidity;BME280_pressure;Samples;Min_cycle;Max_cycle;Signal;HPM_P1;HPM_P2
2021/11/10 00:00:15;;;;;;;2.47;1.75;;;;;;;;;;5038864;28;20565;-83
2021/11/10 00:02:43;;;;;;;4.93;2.13;;;;;;;;;;5039250;28;20193;-83
2021/11/10 00:05:12;;;;;;;1.85;1.75;;;;;;;;;;5038903;28;20194;-84
2021/11/10 00:07:40;;;;;;;2.75;1.90;;;;;;;;;;5038643;28;20805;-83
2021/11/10 00:10:08;;;;;;;2.75;2.55;;;;;;;;;;5038585;28;20233;-84
2021/11/10 00:12:36;;;;;;;3.83;2.70;;;;;;;;;;5038553;28;20237;-84
2021/11/10 00:15:05;;;;;;;4.22;3.28;;;;;;;;;;5038294;28;20660;-84
2021/11/10 00:17:34;;;;;;;4.38;3.10;;;;;;;;;;5038345;28;20195;-83
2021/11/10 00:20:02;;;;;;;3.58;3.15;;;;;;;;;;5038556;28;20595;-84
2021/11/10 00:22:30;;;;;;;5.95;3.28;;;;;;;;;;5038675;28;20194;-84
2021/11/10 00:24:57;;;;;;;3.25;2.60;;;;;;;;;;5038720;28;20174;-84
2021/11/10 00:27:25;;;;;;;4.32;3.17;;;;;;;;;;5037773;28;20186;-83
2021/11/10 00:29:52;;;;;;;3.00;2.80;;;;;;;;;;5038514;28;20219;-83
2021/11/10 00:32:20;;;;;;;3.42;3.05;;;;;;;;;;5038146;28;20183;-84
2021/11/10 00:34:49;;;;;;;4.18;3.78;;;;;;;;;;5037898;28;20198;-84
2021/11/10 00:37:16;;;;;;;3.75;2.95;;;;;;;;;;5037761;28;20205;-84
2021/11/10 00:39:44;;;;;;;4.18;3.25;;;;;;;;;;5038048;28;20248;-83
2021/11/10 00:42:11;;;;;;;3.00;2.80;;;;;;;;;;5037589;28;20187;-83
2021/11/10 00:44:39;;;;;;;3.58;2.40;;;;;;;;;;5037415;28;20207;-83
2021/11/10 00:47:06;;;;;;;3.20;2.70;;;;;;;;;;5038065;28;20179;-84
2021/11/10 00:49:34;;;;;;;2.42;2.20;;;;;;;;;;5037809;28;20210;-84
2021/11/10 00:52:04;;;;;;;2.63;2.42;;;;;;;;;;5037767;28;20191;-83
2021/11/10 00:54:32;;;;;;;3.83;2.88;;;;;;;;;;5038257;28;20218;-84
2021/11/10 00:56:59;;;;;;;3.22;2.30;;;;;;;;;;5037998;28;20186;-83
2021/11/10 00:59:27;;;;;;;2.67;2.47;;;;;;;;;;5037519;28;20222;-84
2021/11/10 01:01:54;;;;;;;2.60;2.40;;;;;;;;;;5037138;28;20607;-83
2021/11/10 01:04:22;;;;;;;2.10;2.00;;;;;;;;;;5036534;28;20205;-83
2021/11/10 01:06:50;;;;;;;2.17;1.98;;;;;;;;;;5037643;28;20661;-84
2021/11/10 01:09:19;;;;;;;1.60;1.50;;;;;;;;;;5037783;28;20218;-83
2021/11/10 01:11:48;;;;;;;3.83;1.95;;;;;;;;;;5037547;28;20190;-84
2021/11/10 01:14:17;;;;;;;1.85;1.50;;;;;;;;;;5037494;28;20213;-84
2021/11/10 01:16:45;;;;;;;2.97;1.98;;;;;;;;;;5037368;28;20561;-84
2021/11/10 01:19:12;;;;;;;1.95;1.38;;;;;;;;;;5037285;28;20214;-84
2021/11/10 01:21:40;;;;;;;3.45;1.60;;;;;;;;;;5037373;28;20187;-83
2021/11/10 01:24:08;;;;;;;2.13;1.92;;;;;;;;;;5037468;28;20198;-84
2021/11/10 01:26:36;;;;;;;1.80;1.70;;;;;;;;;;5037233;28;20198;-84
2021/11/10 01:29:04;;;;;;;1.80;1.70;;;;;;;;;;5036522;28;20221;-82
2021/11/10 01:31:31;;;;;;;1.90;1.77;;;;;;;;;;5036542;28;20202;-84
2021/11/10 01:34:03;;;;;;;2.47;2.28;;;;;;;;;;5037162;28;20684;-83
2021/11/10 01:36:30;;;;;;;2.45;1.90;;;;;;;;;;5037244;28;20249;-84
2021/11/10 01:38:58;;;;;;;2.13;2.00;;;;;;;;;;5037218;28;20225;-84
2021/11/10 01:41:26;;;;;;;1.80;1.70;;;;;;;;;;5036918;28;20189;-83
2021/11/10 01:43:55;;;;;;;2.67;1.70;;;;;;;;;;5036565;28;20201;-84
2021/11/10 01:46:22;;;;;;;2.20;1.88;;;;;;;;;;5035865;28;20205;-84
2021/11/10 01:48:50;;;;;;;1.52;1.42;;;;;;;;;;5037055;28;20706;-84
2021/11/10 01:51:17;;;;;;;1.60;1.50;;;;;;;;;;5036599;28;20285;-84
2021/11/10 01:53:45;;;;;;;2.05;1.92;;;;;;;;;;5036608;28;20222;-84
2021/11/10 01:56:17;;;;;;;2.38;2.13;;;;;;;;;;5017080;28;20187;-84
2021/11/10 01:58:45;;;;;;;2.22;2.00;;;;;;;;;;5017366;28;20238;-83
2021/11/10 02:01:13;;;;;;;4.85;2.50;;;;;;;;;;5015945;28;20206;-83
2021/11/10 02:03:41;;;;;;;3.60;2.30;;;;;;;;;;5016165;28;20210;-83
2021/11/10 02:06:08;;;;;;;2.25;2.15;;;;;;;;;;5016379;28;20203;-84
2021/11/10 02:08:36;;;;;;;3.83;2.83;;;;;;;;;;5016392;28;20230;-83
2021/11/10 02:11:04;;;;;;;3.65;2.90;;;;;;;;;;5017080;28;20231;-83
2021/11/10 02:13:31;;;;;;;3.13;2.83;;;;;;;;;;5017027;28;20227;-82
2021/11/10 02:16:00;;;;;;;3.13;2.80;;;;;;;;;;5024564;28;20206;-84
2021/11/10 02:18:29;;;;;;;3.10;2.78;;;;;;;;;;5036382;28;20257;-83
2021/11/10 02:20:57;;;;;;;3.30;3.00;;;;;;;;;;5036182;28;20206;-84
2021/11/10 02:23:25;;;;;;;2.83;2.63;;;;;;;;;;5036406;28;20214;-83
2021/11/10 02:25:58;;;;;;;3.55;2.53;;;;;;;;;;5036374;28;20217;-83
2021/11/10 02:28:25;;;;;;;2.28;2.17;;;;;;;;;;5036033;28;20294;-82
2021/11/10 02:30:54;;;;;;;3.20;2.67;;;;;;;;;;5036157;28;20189;-84
2021/11/10 02:33:28;;;;;;;3.83;3.00;;;;;;;;;;5036007;28;20203;-83
2021/11/10 02:36:02;;;;;;;3.25;2.97;;;;;;;;;;5036433;28;20198;-84
2021/11/10 02:38:30;;;;;;;5.85;3.88;;;;;;;;;;5035879;28;20218;-83
2021/11/10 02:41:01;;;;;;;4.35;2.80;;;;;;;;;;5036049;28;20179;-84
2021/11/10 02:43:29;;;;;;;3.90;3.10;;;;;;;;;;5036074;28;20193;-84
2021/11/10 02:45:58;;;;;;;2.65;2.45;;;;;;;;;;5036492;28;20199;-83
2021/11/10 02:48:25;;;;;;;2.90;2.70;;;;;;;;;;5036069;28;20218;-84
2021/11/10 02:50:53;;;;;;;3.78;3.47;;;;;;;;;;5035793;28;20653;-83
2021/11/10 02:53:22;;;;;;;3.33;3.03;;;;;;;;;;5035910;28;20687;-83
2021/11/10 02:55:50;;;;;;;3.03;2.80;;;;;;;;;;5035940;28;20213;-84
2021/11/10 02:58:18;;;;;;;3.30;3.00;;;;;;;;;;5037104;28;20219;-83
2021/11/10 03:00:45;;;;;;;3.15;2.50;;;;;;;;;;5039470;28;20195;-83
2021/11/10 03:03:13;;;;;;;4.22;2.97;;;;;;;;;;5040044;28;20194;-83
2021/11/10 03:05:47;;;;;;;2.33;2.13;;;;;;;;;;5039926;28;20202;-84
2021/11/10 03:10:58;;;;;;;2.92;2.65;;;;;;;;;;5032489;28;20213;-89
2021/11/10 03:13:39;;;;;;;2.83;2.63;;;;;;;;;;5033967;28;20663;-89
2021/11/10 03:16:08;;;;;;;2.88;2.58;;;;;;;;;;5033771;28;20191;-90
2021/11/10 03:18:38;;;;;;;4.88;4.47;;;;;;;;;;5033672;28;20789;-88
2021/11/10 03:21:10;;;;;;;10.50;3.70;;;;;;;;;;5033721;28;20560;-88
2021/11/10 03:23:39;;;;;;;2.90;2.40;;;;;;;;;;5034002;28;20289;-88
2021/11/10 03:26:32;;;;;;;2.42;2.20;;;;;;;;;;5033725;28;20277;-88
2021/11/10 03:29:13;;;;;;;4.40;2.85;;;;;;;;;;5033747;28;20301;-89
2021/11/10 03:31:41;;;;;;;4.03;3.45;;;;;;;;;;5034122;28;20820;-89
2021/11/10 03:35:00;;;;;;;3.90;3.50;;;;;;;;;;5034252;28;20209;-89
2021/11/10 03:37:41;;;;;;;3.00;2.80;;;;;;;;;;5033984;28;20209;-88
2021/11/10 03:40:28;;;;;;;3.13;2.83;;;;;;;;;;5033770;28;20225;-88
2021/11/10 03:42:58;;;;;;;2.45;2.28;;;;;;;;;;5034140;28;20234;-88
2021/11/10 03:45:38;;;;;;;2.80;2.58;;;;;;;;;;5033314;28;20269;-87
2021/11/10 03:48:08;;;;;;;4.13;3.72;;;;;;;;;;5033115;28;20193;-88
2021/11/10 03:50:49;;;;;;;4.82;3.75;;;;;;;;;;5033819;28;20222;-88
2021/11/10 03:53:30;;;;;;;5.30;4.15;;;;;;;;;;5033571;28;20548;-88
2021/11/10 03:56:18;;;;;;;4.53;4.05;;;;;;;;;;5033524;28;20207;-89
2021/11/10 03:59:08;;;;;;;4.20;3.70;;;;;;;;;;5032830;28;20324;-89
2021/11/10 04:01:46;;;;;;;5.38;4.85;;;;;;;;;;5033088;28;20193;-89
2021/11/10 04:04:16;;;;;;;7.25;4.78;;;;;;;;;;5032842;28;20198;-89
2021/11/10 04:06:51;;;;;;;3.55;3.22;;;;;;;;;;5032651;28;20274;-89
2021/11/10 04:09:19;;;;;;;5.30;3.17;;;;;;;;;;5030646;28;20300;-89
2021/11/10 04:11:58;;;;;;;2.53;2.33;;;;;;;;;;5032475;28;20199;-90
2021/11/10 04:14:29;;;;;;;2.20;1.98;;;;;;;;;;5032678;28;20575;-89
2021/11/10 04:16:57;;;;;;;1.95;1.85;;;;;;;;;;5032533;28;20183;-89
2021/11/10 04:19:30;;;;;;;1.95;1.85;;;;;;;;;;5032297;28;20230;-89
2021/11/10 04:22:02;;;;;;;2.08;1.80;;;;;;;;;;5032976;28;20261;-89
2021/11/10 04:25:08;;;;;;;1.75;1.65;;;;;;;;;;5032888;28;20644;-89
2021/11/10 04:27:35;;;;;;;2.00;1.85;;;;;;;;;;5031292;28;20221;-90
2021/11/10 04:30:19;;;;;;;2.20;1.90;;;;;;;;;;5032365;28;20214;-89
2021/11/10 04:32:50;;;;;;;2.42;2.22;;;;;;;;;;5032227;28;20206;-89
2021/11/10 04:35:28;;;;;;;1.92;1.83;;;;;;;;;;5032641;28;20225;-89
2021/11/10 04:38:10;;;;;;;1.52;1.42;;;;;;;;;;5032073;28;20195;-89
2021/11/10 04:40:40;;;;;;;2.65;2.45;;;;;;;;;;5032191;28;20266;-89
2021/11/10 04:43:26;;;;;;;1.85;1.75;;;;;;;;;;5032356;28;20294;-89
2021/11/10 04:46:19;;;;;;;1.58;1.48;;;;;;;;;;5032082;28;20273;-90
2021/11/10 04:48:55;;;;;;;2.15;2.05;;;;;;;;;;5031538;28;20222;-89
2021/11/10 04:51:35;;;;;;;2.38;2.17;;;;;;;;;;5031587;28;20194;-89
2021/11/10 04:54:50;;;;;;;3.25;3.03;;;;;;;;;;5031558;28;20229;-90
2021/11/10 04:57:24;;;;;;;2.63;2.42;;;;;;;;;;5031667;28;20286;-89
2021/11/10 05:00:06;;;;;;;1.67;1.58;;;;;;;;;;5031130;28;20596;-90
2021/11/10 05:02:46;;;;;;;2.58;2.38;;;;;;;;;;5031677;28;20206;-89
2021/11/10 05:05:23;;;;;;;2.33;2.13;;;;;;;;;;5031427;28;20197;-89
2021/11/10 05:08:06;;;;;;;3.72;3.10;;;;;;;;;;5031376;28;20186;-89
2021/11/10 05:10:45;;;;;;;5.45;3.50;;;;;;;;;;5031216;28;20234;-89
2021/11/10 05:13:23;;;;;;;3.88;3.20;;;;;;;;;;5031769;28;20188;-89
2021/11/10 05:15:52;;;;;;;4.60;4.10;;;;;;;;;;5031189;28;20313;-89
2021/11/10 05:18:28;;;;;;;3.08;2.78;;;;;;;;;;5030839;28;20289;-88
2021/11/10 05:20:56;;;;;;;4.68;3.70;;;;;;;;;;5031335;28;20204;-89
2021/11/10 05:23:24;;;;;;;4.40;3.10;;;;;;;;;;5031537;28;20194;-89
2021/11/10 05:25:53;;;;;;;3.70;3.40;;;;;;;;;;5031287;28;20218;-89
2021/11/10 05:28:20;;;;;;;4.65;3.47;;;;;;;;;;5031093;28;20212;-89
2021/11/10 05:30:58;;;;;;;2.63;2.42;;;;;;;;;;5031634;28;20189;-89
2021/11/10 05:33:27;;;;;;;2.78;2.58;;;;;;;;;;5032249;28;20582;-90
2021/11/10 05:35:58;;;;;;;3.47;3.17;;;;;;;;;;5031875;28;20281;-89
2021/11/10 05:39:03;;;;;;;2.70;2.50;;;;;;;;;;5031918;28;20229;-89
2021/11/10 05:41:32;;;;;;;4.30;2.65;;;;;;;;;;5032517;28;20214;-89
2021/11/10 05:44:01;;;;;;;3.85;3.53;;;;;;;;;;5031996;28;20261;-89
2021/11/10 05:46:29;;;;;;;4.75;3.13;;;;;;;;;;5033767;28;20214;-87
2021/11/10 05:49:08;;;;;;;3.97;2.70;;;;;;;;;;5032799;28;20233;-89
2021/11/10 05:51:38;;;;;;;3.35;3.05;;;;;;;;;;5032265;28;20184;-90
2021/11/10 05:54:49;;;;;;;3.15;2.85;;;;;;;;;;5045026;28;20198;-89
2021/11/10 05:57:24;;;;;;;2.78;2.47;;;;;;;;;;5036947;28;20214;-90
2021/11/10 06:00:10;;;;;;;2.85;2.65;;;;;;;;;;5032638;28;20325;-89
2021/11/10 06:02:45;;;;;;;3.03;2.83;;;;;;;;;;5033141;28;20184;-89
2021/11/10 06:05:17;;;;;;;2.70;2.50;;;;;;;;;;5033294;28;20272;-90
2021/11/10 06:07:45;;;;;;;3.80;3.40;;;;;;;;;;5032967;28;20179;-89
2021/11/10 06:10:14;;;;;;;3.40;3.10;;;;;;;;;;5032937;28;20242;-89
2021/11/10 06:12:46;;;;;;;4.13;3.55;;;;;;;;;;5033307;28;20290;-89
2021/11/10 06:15:20;;;;;;;5.03;4.32;;;;;;;;;;5032955;28;20194;-90
2021/11/10 06:17:51;;;;;;;3.75;3.38;;;;;;;;;;5033524;28;20194;-90
2021/11/10 06:20:51;;;;;;;3.72;3.40;;;;;;;;;;5033520;28;20310;-90
2021/11/10 06:23:18;;;;;;;3.50;3.20;;;;;;;;;;5033760;28;20270;-88
2021/11/10 06:25:48;;;;;;;4.00;3.20;;;;;;;;;;5033242;28;20179;-89
2021/11/10 06:28:26;;;;;;;3.63;3.38;;;;;;;;;;5033367;28;20199;-90
2021/11/10 06:31:03;;;;;;;3.72;2.88;;;;;;;;;;5032953;28;20196;-89
2021/11/10 06:33:33;;;;;;;3.05;2.58;;;;;;;;;;5035265;28;20265;-89
2021/11/10 06:36:24;;;;;;;2.95;2.75;;;;;;;;;;5036640;28;20203;-90
2021/11/10 06:38:53;;;;;;;3.22;2.92;;;;;;;;;;5037239;28;20312;-89
2021/11/10 06:41:24;;;;;;;3.33;3.03;;;;;;;;;;5037723;28;20222;-89
2021/11/10 06:43:59;;;;;;;2.90;2.70;;;;;;;;;;5037485;28;20198;-89
2021/11/10 06:46:37;;;;;;;4.35;3.55;;;;;;;;;;5038134;28;20198;-89
2021/11/10 06:49:19;;;;;;;4.78;4.35;;;;;;;;;;5037363;28;20218;-89
2021/11/10 06:51:58;;;;;;;3.08;2.88;;;;;;;;;;5037268;28;20179;-89
2021/11/10 06:54:41;;;;;;;3.75;3.45;;;;;;;;;;5037124;28;20186;-89
2021/11/10 06:57:10;;;;;;;3.63;2.83;;;;;;;;;;5037121;28;20222;-89
2021/11/10 06:59:44;;;;;;;3.42;3.13;;;;;;;;;;5037281;28;20704;-89
2021/11/10 07:02:30;;;;;;;3.65;3.05;;;;;;;;;;5037085;28;20186;-88
2021/11/10 07:05:07;;;;;;;3.85;3.28;;;;;;;;;;5037351;28;20202;-87
2021/11/10 07:07:55;;;;;;;3.13;2.92;;;;;;;;;;5036968;28;20217;-87
2021/11/10 07:10:33;;;;;;;2.05;1.95;;;;;;;;;;5036959;28;20617;-89
2021/11/10 07:13:14;;;;;;;2.90;2.70;;;;;;;;;;5036522;28;20186;-88
2021/11/10 07:15:43;;;;;;;2.40;2.08;;;;;;;;;;5037910;28;20202;-87
2021/11/10 07:18:12;;;;;;;3.20;3.00;;;;;;;;;;5036770;28;20198;-87
2021/11/10 07:20:51;;;;;;;2.70;2.50;;;;;;;;;;5037281;28;20191;-87
2021/11/10 07:23:29;;;;;;;3.00;2.42;;;;;;;;;;5037008;28;20183;-87
2021/11/10 07:26:01;;;;;;;2.45;2.25;;;;;;;;;;5037245;28;20179;-88
2021/11/10 07:28:35;;;;;;;2.15;1.98;;;;;;;;;;5037263;28;20203;-88
2021/11/10 07:31:04;;;;;;;1.80;1.70;;;;;;;;;;5037795;28;20190;-88
2021/11/10 07:33:31;;;;;;;2.10;1.90;;;;;;;;;;5036574;28;20194;-87
2021/11/10 07:35:59;;;;;;;2.30;2.10;;;;;;;;;;5036739;28;20186;-88
2021/11/10 07:38:29;;;;;;;2.03;1.90;;;;;;;;;;5036042;28;20718;-88
2021/11/10 07:41:04;;;;;;;2.53;2.33;;;;;;;;;;5036588;28;20581;-88
2021/11/10 07:43:39;;;;;;;2.65;2.45;;;;;;;;;;5036406;28;20336;-88
2021/11/10 07:46:19;;;;;;;2.17;2.08;;;;;;;;;;5034840;28;20555;-88
2021/11/10 07:48:49;;;;;;;2.15;2.05;;;;;;;;;;5035566;28;20284;-89
2021/11/10 07:51:24;;;;;;;2.45;2.25;;;;;;;;;;5036189;28;20224;-89
2021/11/10 07:54:03;;;;;;;2.58;2.38;;;;;;;;;;5036159;28;20193;-89
2021/11/10 07:56:50;;;;;;;2.50;2.30;;;;;;;;;;5022229;28;20221;-89
2021/11/10 07:59:19;;;;;;;2.80;2.58;;;;;;;;;;5019083;28;20222;-88
2021/11/10 08:01:55;;;;;;;2.38;2.17;;;;;;;;;;5036143;28;20203;-88
2021/11/10 08:04:25;;;;;;;2.92;2.72;;;;;;;;;;5018589;28;20186;-91
2021/11/10 08:07:07;;;;;;;3.15;2.85;;;;;;;;;;5027713;28;20201;-90
2021/11/10 08:09:36;;;;;;;3.70;3.35;;;;;;;;;;5024603;28;20712;-89
2021/11/10 08:12:05;;;;;;;2.60;2.45;;;;;;;;;;5026274;28;20281;-91
2021/11/10 08:14:37;;;;;;;2.60;2.40;;;;;;;;;;5037246;28;20240;-90
2021/11/10 08:17:14;;;;;;;3.20;2.90;;;;;;;;;;5035157;28;20301;-90
2021/11/10 08:19:42;;;;;;;3.20;2.90;;;;;;;;;;5037296;28;20637;-90
2021/11/10 08:22:11;;;;;;;3.63;3.33;;;;;;;;;;5036258;28;20187;-90
2021/11/10 08:24:45;;;;;;;3.13;2.90;;;;;;;;;;5021313;28;20230;-89
2021/11/10 08:27:14;;;;;;;2.90;2.70;;;;;;;;;;5015691;28;20195;-88
2021/11/10 08:30:01;;;;;;;4.15;3.42;;;;;;;;;;5015018;28;20219;-88
2021/11/10 08:32:28;;;;;;;3.17;2.97;;;;;;;;;;5015365;28;20230;-89
2021/11/10 08:35:04;;;;;;;3.53;3.22;;;;;;;;;;5015293;28;20199;-88
2021/11/10 08:37:44;;;;;;;4.70;4.25;;;;;;;;;;5015631;28;20294;-88
2021/11/10 08:40:28;;;;;;;6.07;5.47;;;;;;;;;;5014820;28;20302;-88
2021/11/10 08:42:57;;;;;;;4.93;4.47;;;;;;;;;;5031460;28;20194;-88
2021/11/10 08:45:36;;;;;;;4.35;3.95;;;;;;;;;;5034433;28;20967;-88
2021/11/10 08:48:25;;;;;;;3.97;3.65;;;;;;;;;;5034593;28;20194;-88
2021/11/10 08:50:57;;;;;;;5.00;4.57;;;;;;;;;;5022628;28;20194;-89
2021/11/10 08:53:25;;;;;;;5.10;4.70;;;;;;;;;;5024974;28;20218;-89
2021/11/10 08:55:57;;;;;;;3.67;3.38;;;;;;;;;;5034282;28;20281;-87
2021/11/10 08:58:28;;;;;;;3.60;3.40;;;;;;;;;;5030974;28;20265;-88
2021/11/10 09:00:58;;;;;;;3.70;3.40;;;;;;;;;;5020452;28;20190;-86
2021/11/10 09:03:27;;;;;;;4.97;4.32;;;;;;;;;;5017783;28;20278;-86
2021/11/10 09:05:56;;;;;;;4.10;3.63;;;;;;;;;;5014723;28;20194;-87
2021/11/10 09:08:33;;;;;;;4.15;3.65;;;;;;;;;;5014963;28;20677;-88
2021/11/10 09:11:02;;;;;;;5.57;5.07;;;;;;;;;;5069974;23;20581;-84
2021/11/10 09:13:30;;;;;;;6.35;5.85;;;;;;;;;;5054003;28;20190;-85
2021/11/10 09:15:59;;;;;;;4.85;4.35;;;;;;;;;;5054162;28;20213;-85
2021/11/10 09:18:26;;;;;;;4.90;4.45;;;;;;;;;;5053247;28;20217;-85
2021/11/10 09:20:55;;;;;;;4.50;4.03;;;;;;;;;;5052721;28;20598;-83
2021/11/10 09:23:22;;;;;;;7.90;6.28;;;;;;;;;;5033221;28;20197;-84
2021/11/10 09:25:51;;;;;;;6.70;6.10;;;;;;;;;;5033905;28;20221;-84
2021/11/10 09:28:22;;;;;;;7.95;5.00;;;;;;;;;;5032895;28;20218;-84
2021/11/10 09:30:53;;;;;;;6.03;5.53;;;;;;;;;;5032694;28;20598;-84
2021/11/10 09:33:24;;;;;;;4.72;4.32;;;;;;;;;;5034054;28;20723;-84
2021/11/10 09:35:52;;;;;;;4.63;4.22;;;;;;;;;;5033247;28;20225;-84
2021/11/10 09:38:22;;;;;;;7.18;6.50;;;;;;;;;;5033879;28;20222;-84
2021/11/10 09:40:50;;;;;;;5.63;5.00;;;;;;;;;;5034777;28;20305;-83
2021/11/10 09:43:19;;;;;;;6.80;5.65;;;;;;;;;;5035680;28;20301;-84
2021/11/10 09:45:48;;;;;;;6.47;4.50;;;;;;;;;;5023724;28;20223;-85
2021/11/10 09:48:17;;;;;;;5.22;4.72;;;;;;;;;;5016127;28;20626;-84
2021/11/10 09:50:48;;;;;;;6.28;5.70;;;;;;;;;;5016101;28;20227;-84
2021/11/10 09:53:16;;;;;;;5.72;5.13;;;;;;;;;;5030584;28;20224;-84
2021/11/10 09:55:44;;;;;;;4.28;3.97;;;;;;;;;;5056064;28;20189;-84
2021/11/10 09:58:12;;;;;;;5.60;5.15;;;;;;;;;;5055714;28;20671;-85
2021/11/10 10:00:45;;;;;;;5.47;4.93;;;;;;;;;;5055141;28;20703;-85
2021/11/10 10:03:14;;;;;;;5.32;4.93;;;;;;;;;;5055152;28;20199;-85
2021/11/10 10:05:41;;;;;;;4.60;4.20;;;;;;;;;;5035700;28;20201;-84
2021/11/10 10:08:09;;;;;;;3.58;3.28;;;;;;;;;;5034503;28;20573;-85
2021/11/10 10:10:39;;;;;;;5.00;4.50;;;;;;;;;;5035476;28;20317;-84
2021/11/10 10:13:09;;;;;;;5.25;4.45;;;;;;;;;;5035403;28;20190;-84
2021/11/10 10:15:39;;;;;;;5.13;4.70;;;;;;;;;;5034985;28;20194;-85
2021/11/10 10:18:17;;;;;;;6.03;5.53;;;;;;;;;;5034565;28;20222;-84
2021/11/10 10:20:45;;;;;;;5.65;5.18;;;;;;;;;;5032465;28;20240;-84
2021/11/10 10:23:15;;;;;;;5.65;4.60;;;;;;;;;;5034619;28;20639;-84
2021/11/10 10:25:46;;;;;;;5.35;4.85;;;;;;;;;;5052099;28;20189;-85
2021/11/10 10:28:16;;;;;;;6.43;5.82;;;;;;;;;;5054662;28;20198;-85
2021/11/10 10:30:46;;;;;;;5.32;4.93;;;;;;;;;;5055267;28;20223;-85
2021/11/10 10:33:18;;;;;;;3.90;3.60;;;;;;;;;;5055369;28;20312;-85
2021/11/10 10:35:48;;;;;;;6.28;5.78;;;;;;;;;;5055221;28;20187;-85
2021/11/10 10:38:18;;;;;;;5.68;5.18;;;;;;;;;;5055290;28;20217;-84
2021/11/10 10:40:47;;;;;;;6.15;5.55;;;;;;;;;;5055540;28;20214;-85
2021/11/10 10:43:16;;;;;;;5.13;4.65;;;;;;;;;;5052149;28;21593;-85
2021/11/10 10:45:48;;;;;;;5.60;4.93;;;;;;;;;;5014620;28;20776;-85
2021/11/10 10:48:20;;;;;;;5.93;5.32;;;;;;;;;;5014528;28;20187;-85
2021/11/10 10:50:51;;;;;;;4.30;3.85;;;;;;;;;;5014837;28;20265;-84
2021/11/10 10:53:21;;;;;;;3.95;3.58;;;;;;;;;;5014855;28;20203;-84
2021/11/10 10:55:51;;;;;;;3.85;3.42;;;;;;;;;;5015344;28;20195;-84
2021/11/10 10:58:36;;;;;;;5.35;4.75;;;;;;;;;;5014643;28;20183;-86
2021/11/10 11:01:22;;;;;;;4.88;4.45;;;;;;;;;;5015094;28;20226;-84
2021/11/10 11:04:02;;;;;;;4.05;3.75;;;;;;;;;;5015019;28;20675;-85
2021/11/10 11:06:38;;;;;;;4.50;4.10;;;;;;;;;;5015553;28;20245;-85
2021/11/10 11:09:15;;;;;;;4.93;4.53;;;;;;;;;;5014877;28;20241;-84
2021/11/10 11:11:55;;;;;;;4.47;4.07;;;;;;;;;;5015346;28;20198;-85
2021/11/10 11:17:20;;;;;;;3.00;2.80;;;;;;;;;;5013041;28;20199;-84
2021/11/10 11:19:51;;;;;;;4.60;4.20;;;;;;;;;;5015175;28;20338;-86
2021/11/10 11:22:21;;;;;;;5.53;4.93;;;;;;;;;;5036790;28;20197;-85
2021/11/10 11:24:49;;;;;;;4.72;4.32;;;;;;;;;;5036511;28;20687;-85
2021/11/10 11:27:25;;;;;;;3.80;3.47;;;;;;;;;;5037997;28;20183;-84
2021/11/10 11:30:12;;;;;;;3.92;3.63;;;;;;;;;;5037663;28;20218;-84
2021/11/10 11:32:43;;;;;;;4.82;4.38;;;;;;;;;;5037487;28;20607;-85
2021/11/10 11:35:22;;;;;;;4.90;4.50;;;;;;;;;;5018199;28;20214;-85
2021/11/10 11:37:50;;;;;;;4.10;3.80;;;;;;;;;;5018095;28;20565;-84
2021/11/10 11:40:21;;;;;;;5.38;4.88;;;;;;;;;;5021871;28;20242;-84
2021/11/10 11:42:50;;;;;;;5.45;4.95;;;;;;;;;;5041464;28;20199;-84
2021/11/10 11:45:18;;;;;;;5.25;4.78;;;;;;;;;;5043525;28;20197;-84
2021/11/10 11:47:49;;;;;;;4.00;3.70;;;;;;;;;;5043772;28;20182;-85
2021/11/10 11:50:18;;;;;;;4.30;3.60;;;;;;;;;;5044490;28;20232;-84
2021/11/10 11:52:49;;;;;;;3.78;3.47;;;;;;;;;;5042572;28;20193;-84
2021/11/10 11:55:22;;;;;;;4.80;4.40;;;;;;;;;;5042916;28;20191;-84
2021/11/10 11:58:02;;;;;;;4.70;4.30;;;;;;;;;;5040871;28;20204;-84
2021/11/10 12:00:31;;;;;;;5.28;4.57;;;;;;;;;;5039133;28;20233;-85
2021/11/10 12:02:59;;;;;;;3.50;3.22;;;;;;;;;;5039503;28;20187;-85
2021/11/10 12:05:29;;;;;;;4.20;3.80;;;;;;;;;;5058770;28;20210;-83
2021/11/10 12:07:58;;;;;;;4.22;3.83;;;;;;;;;;5057820;28;20194;-83
2021/11/10 12:10:40;;;;;;;3.50;3.20;;;;;;;;;;5057692;28;20240;-83
2021/11/10 12:13:21;;;;;;;4.15;3.85;;;;;;;;;;5057645;28;20389;-84
2021/11/10 12:16:21;;;;;;;3.88;3.47;;;;;;;;;;5057554;28;20201;-83
2021/11/10 12:19:07;;;;;;;3.53;3.22;;;;;;;;;;5057701;28;20555;-83
2021/11/10 12:21:45;;;;;;;4.30;3.35;;;;;;;;;;5057383;28;20693;-83
2021/11/10 12:24:28;;;;;;;4.43;3.25;;;;;;;;;;5057861;28;20185;-83
2021/11/10 12:27:14;;;;;;;3.38;3.08;;;;;;;;;;5057148;28;20248;-83
2021/11/10 12:30:04;;;;;;;3.15;2.55;;;;;;;;;;5057697;28;20218;-83
2021/11/10 12:32:57;;;;;;;2.83;2.60;;;;;;;;;;5043574;28;20202;-84
2021/11/10 12:35:34;;;;;;;2.78;2.58;;;;;;;;;;5057492;28;20285;-83
2021/11/10 12:38:12;;;;;;;3.15;2.95;;;;;;;;;;5057068;28;20201;-84
2021/11/10 12:40:51;;;;;;;2.60;2.40;;;;;;;;;;5057074;28;20245;-83
2021/11/10 12:43:20;;;;;;;2.90;2.70;;;;;;;;;;5057159;28;20190;-85
2021/11/10 12:46:02;;;;;;;3.10;2.80;;;;;;;;;;5056846;28;20185;-84
2021/11/10 12:48:35;;;;;;;2.95;2.65;;;;;;;;;;5056642;28;20639;-84
2021/11/10 12:51:28;;;;;;;2.72;2.47;;;;;;;;;;5056968;28;20222;-86
2021/11/10 12:53:58;;;;;;;2.75;2.40;;;;;;;;;;5056634;28;20213;-85
2021/11/10 12:56:48;;;;;;;3.22;2.78;;;;;;;;;;5056536;28;20178;-85
2021/11/10 12:59:25;;;;;;;3.55;3.25;;;;;;;;;;5056314;28;20201;-84
2021/11/10 13:01:55;;;;;;;3.33;2.63;;;;;;;;;;5056562;28;20554;-84
2021/11/10 13:04:25;;;;;;;2.38;2.17;;;;;;;;;;5056214;28;20244;-84
2021/11/10 13:06:56;;;;;;;3.60;3.33;;;;;;;;;;5056056;28;20249;-84
2021/11/10 13:09:34;;;;;;;2.47;2.28;;;;;;;;;;5055677;28;20256;-84
2021/11/10 13:12:03;;;;;;;4.28;2.75;;;;;;;;;;5049940;28;20194;-83
2021/11/10 13:14:31;;;;;;;2.83;2.63;;;;;;;;;;5036392;28;20194;-84
2021/11/10 13:17:03;;;;;;;3.65;3.35;;;;;;;;;;5022010;28;20586;-84
2021/11/10 13:19:52;;;;;;;3.30;2.90;;;;;;;;;;5017089;28;20237;-83
2021/11/10 13:22:32;;;;;;;2.83;2.60;;;;;;;;;;5033985;28;20260;-84
2021/11/10 13:25:07;;;;;;;4.00;3.13;;;;;;;;;;5035845;28;20204;-84
2021/11/10 13:27:38;;;;;;;2.45;1.75;;;;;;;;;;5035121;28;20185;-84
2021/11/10 13:30:09;;;;;;;2.60;2.40;;;;;;;;;;5035155;28;20224;-85
2021/11/10 13:32:42;;;;;;;2.85;2.53;;;;;;;;;;5035520;28;20187;-84
2021/11/10 13:35:10;;;;;;;2.63;2.38;;;;;;;;;;5035939;28;20216;-84
2021/11/10 13:37:42;;;;;;;3.83;3.42;;;;;;;;;;5034656;28;20191;-84
2021/11/10 13:40:13;;;;;;;2.85;2.65;;;;;;;;;;5035995;28;20233;-84
2021/11/10 13:42:42;;;;;;;2.92;2.65;;;;;;;;;;5034971;28;20187;-83
2021/11/10 13:45:14;;;;;;;2.80;2.60;;;;;;;;;;5054626;28;20197;-84
2021/11/10 13:47:52;;;;;;;2.35;2.20;;;;;;;;;;5055763;28;20674;-83
2021/11/10 13:50:21;;;;;;;2.10;1.90;;;;;;;;;;5055658;28;20231;-84
2021/11/10 13:52:48;;;;;;;3.05;2.65;;;;;;;;;;5043966;28;20194;-83
2021/11/10 13:55:17;;;;;;;2.95;2.75;;;;;;;;;;5046739;28;20195;-84
2021/11/10 13:57:45;;;;;;;2.30;2.10;;;;;;;;;;5036241;28;20191;-83
2021/11/10 14:00:16;;;;;;;1.80;1.70;;;;;;;;;;5041579;28;20316;-83
2021/11/10 14:02:46;;;;;;;2.60;2.40;;;;;;;;;;5056200;28;20578;-83
2021/11/10 14:05:16;;;;;;;1.98;1.88;;;;;;;;;;5056590;28;20178;-83
2021/11/10 14:07:45;;;;;;;3.03;2.72;;;;;;;;;;5056097;28;20208;-83
2021/11/10 14:10:16;;;;;;;1.80;1.70;;;;;;;;;;5055731;28;20229;-82
2021/11/10 14:12:47;;;;;;;1.95;1.85;;;;;;;;;;5045968;28;20189;-83
2021/11/10 14:15:17;;;;;;;2.58;2.22;;;;;;;;;;5035912;28;20198;-83
2021/11/10 14:17:49;;;;;;;1.90;1.80;;;;;;;;;;5055543;28;20189;-83
2021/11/10 14:20:27;;;;;;;2.00;1.75;;;;;;;;;;5042026;28;20237;-84
2021/11/10 14:23:05;;;;;;;2.25;2.05;;;;;;;;;;5036007;28;20226;-83
2021/11/10 14:25:41;;;;;;;1.80;1.70;;;;;;;;;;5035466;28;20644;-84
2021/11/10 14:28:10;;;;;;;3.00;2.10;;;;;;;;;;5036403;28;20178;-83
2021/11/10 14:30:41;;;;;;;2.13;1.92;;;;;;;;;;5036207;28;20218;-84
2021/11/10 14:33:09;;;;;;;1.67;1.58;;;;;;;;;;5035737;28;20201;-82
2021/11/10 14:35:43;;;;;;;1.98;1.83;;;;;;;;;;5036318;28;20551;-84
2021/11/10 14:38:15;;;;;;;2.33;2.03;;;;;;;;;;5035207;28;20206;-84
2021/11/10 14:40:48;;;;;;;1.88;1.52;;;;;;;;;;5037199;28;20671;-84
2021/11/10 14:43:34;;;;;;;2.47;2.28;;;;;;;;;;5036625;28;20213;-84
2021/11/10 14:46:18;;;;;;;2.00;1.90;;;;;;;;;;5036459;28;20198;-85
2021/11/10 14:48:49;;;;;;;1.80;1.70;;;;;;;;;;5036012;28;20743;-84
2021/11/10 14:51:24;;;;;;;2.33;2.13;;;;;;;;;;5036149;28;20368;-83
2021/11/10 14:54:10;;;;;;;2.15;2.00;;;;;;;;;;5036835;28;20236;-83
2021/11/10 14:56:53;;;;;;;2.40;2.20;;;;;;;;;;5039968;28;20186;-85
2021/11/10 14:59:26;;;;;;;2.03;1.92;;;;;;;;;;5039273;28;20288;-85
2021/11/10 15:01:57;;;;;;;1.42;1.33;;;;;;;;;;5039298;28;20218;-84
2021/11/10 15:04:28;;;;;;;2.00;1.90;;;;;;;;;;5039988;28;20185;-83
2021/11/10 15:07:08;;;;;;;2.00;1.90;;;;;;;;;;5037738;28;20194;-84
2021/11/10 15:09:36;;;;;;;3.17;2.03;;;;;;;;;;5038505;28;20229;-84
2021/11/10 15:12:20;;;;;;;1.92;1.83;;;;;;;;;;5076058;22;20261;-89
2021/11/10 15:15:16;;;;;;;2.15;1.95;;;;;;;;;;5055266;28;20551;-89
2021/11/10 15:17:48;;;;;;;2.28;2.10;;;;;;;;;;5039645;28;20539;-88
2021/11/10 15:20:27;;;;;;;1.73;1.63;;;;;;;;;;5054895;28;20197;-87
2021/11/10 15:23:01;;;;;;;2.90;2.55;;;;;;;;;;5054515;28;20205;-87
2021/11/10 15:25:33;;;;;;;1.80;1.70;;;;;;;;;;5054129;28;20195;-88